Time;durP1;ratioP1;P1;durP2;ratioP2;P2;SDS_P1;SDS_P2;PMS_P1;PMS_P2;Temp;Humidity;BMP_temperature;BMP_pressure;BME280_temperature;BME280_humidity;BME280_pressure;Samples;Min_cycle;Max_cycle;Signal;HPM_P1;HPM_P2
2023/05/30 00:00:05;;;;;;;6.68;3.53;;;;;;;16.61;47.26;96637.72;5021612;28;20398;-69
2023/05/30 00:02:31;;;;;;;8.02;3.75;;;;;;;16.60;47.48;96640.88;5023398;28;20048;-67
2023/05/30 00:04:56;;;;;;;6.63;3.58;;;;;;;16.50;47.65;96636.25;5023172;28;20045;-67
2023/05/30 00:07:22;;;;;;;7.35;3.85;;;;;;;16.44;47.96;96639.44;5018053;28;20177;-67
2023/05/30 00:09:48;;;;;;;8.43;3.70;;;;;;;16.47;48.04;96639.81;5022810;28;20048;-67
2023/05/30 00:12:13;;;;;;;7.10;3.60;;;;;;;16.44;47.36;96631.16;5018453;28;20049;-66
2023/05/30 00:14:39;;;;;;;5.30;3.20;;;;;;;16.36;48.09;96637.91;5022994;28;20042;-67
2023/05/30 00:17:05;;;;;;;6.80;3.70;;;;;;;16.31;48.20;96643.09;5017700;28;20044;-67
2023/05/30 00:19:31;;;;;;;5.93;3.45;;;;;;;16.21;48.44;96637.22;5023267;28;20037;-68
2023/05/30 00:21:57;;;;;;;6.00;3.35;;;;;;;16.20;48.19;96634.88;5031909;28;20045;-68
2023/05/30 00:24:25;;;;;;;12.75;3.97;;;;;;;16.15;48.16;96638.88;5019669;28;21005;-65
2023/05/30 00:26:51;;;;;;;9.40;3.83;;;;;;;16.02;48.93;96633.00;5022909;28;20038;-65
2023/05/30 00:29:16;;;;;;;8.85;3.92;;;;;;;15.88;49.41;96629.53;5017801;28;20048;-67
2023/05/30 00:31:42;;;;;;;6.47;3.75;;;;;;;15.75;49.72;96632.00;5022260;28;20041;-65
2023/05/30 00:34:07;;;;;;;9.05;3.47;;;;;;;15.69;50.16;96623.31;5017101;28;20073;-66
2023/05/30 00:36:33;;;;;;;6.65;3.45;;;;;;;15.69;50.36;96626.06;5022014;28;20048;-67
2023/05/30 00:38:58;;;;;;;8.20;3.17;;;;;;;15.70;51.16;96622.13;5022539;28;20049;-65
2023/05/30 00:41:23;;;;;;;6.18;3.22;;;;;;;15.64;51.42;96621.75;5016631;28;20661;-65
2023/05/30 00:43:49;;;;;;;7.32;3.65;;;;;;;15.46;52.04;96621.03;5020877;28;20483;-67
2023/05/30 00:46:14;;;;;;;7.43;3.83;;;;;;;15.46;52.25;96619.06;5015496;28;20041;-65
2023/05/30 00:48:40;;;;;;;8.90;4.10;;;;;;;15.32;52.99;96613.59;5019887;28;20073;-66
2023/05/30 00:51:10;;;;;;;8.30;3.15;;;;;;;15.21;53.30;96623.91;5017274;28;20103;-67
2023/05/30 00:53:37;;;;;;;9.23;4.57;;;;;;;15.28;52.76;96615.59;5022084;28;20041;-66
2023/05/30 00:56:02;;;;;;;9.32;4.25;;;;;;;15.23;53.80;96614.06;5019801;28;20045;-66
2023/05/30 00:58:28;;;;;;;10.18;4.18;;;;;;;15.28;53.56;96624.66;5018862;28;20465;-67
2023/05/30 01:00:54;;;;;;;10.32;3.83;;;;;;;15.23;53.80;96627.84;5021510;28;20041;-66
2023/05/30 01:03:24;;;;;;;5.78;3.50;;;;;;;15.25;54.43;96633.75;5016547;28;20038;-66
2023/05/30 01:05:50;;;;;;;8.68;3.47;;;;;;;15.33;53.74;96628.22;5022184;28;20045;-66
2023/05/30 01:08:16;;;;;;;9.70;3.72;;;;;;;15.34;54.08;96629.75;5018476;28;20048;-64
2023/05/30 01:10:41;;;;;;;10.98;3.92;;;;;;;15.34;54.17;96627.00;5020740;28;20034;-66
2023/05/30 01:13:11;;;;;;;8.65;3.90;;;;;;;15.24;54.54;96626.63;5015475;28;20045;-66
2023/05/30 01:15:47;;;;;;;10.35;4.00;;;;;;;15.26;54.02;96632.53;5022115;28;20486;-66
2023/05/30 01:18:25;;;;;;;11.18;3.80;;;;;;;15.25;54.47;96633.75;5017051;28;20092;-65
2023/05/30 01:20:56;;;;;;;7.40;4.03;;;;;;;15.23;54.56;96633.38;5021209;28;20045;-66
2023/05/30 01:23:50;;;;;;;11.40;4.18;;;;;;;15.24;54.73;96625.88;5017307;28;20045;-66
2023/05/30 01:26:56;;;;;;;10.48;4.13;;;;;;;15.20;54.89;96633.38;5016583;28;20498;-66
2023/05/30 01:29:25;;;;;;;6.22;3.65;;;;;;;15.23;54.45;96633.38;5016741;28;20207;-66
2023/05/30 01:31:53;;;;;;;6.93;3.75;;;;;;;15.21;54.72;96632.94;5021371;28;20041;-66
2023/05/30 01:34:20;;;;;;;7.15;3.92;;;;;;;15.43;53.21;96635.63;5016107;28;20494;-66
2023/05/30 01:36:45;;;;;;;8.35;3.60;;;;;;;15.44;53.90;96631.69;5021072;28;20359;-66
2023/05/30 01:39:10;;;;;;;8.40;3.80;;;;;;;15.35;54.38;96634.88;5016045;28;20179;-65
2023/05/30 01:42:04;;;;;;;11.00;3.83;;;;;;;15.29;54.61;96631.75;5021240;28;20384;-66
2023/05/30 01:44:52;;;;;;;6.15;3.28;;;;;;;15.21;55.35;96624.66;5019695;28;20046;-65
2023/05/30 01:47:50;;;;;;;11.35;4.50;;;;;;;14.99;56.30;96637.75;5016242;28;20037;-65
2023/05/30 01:50:19;;;;;;;7.60;3.92;;;;;;;15.06;55.71;96626.69;5016734;28;20141;-64
2023/05/30 01:52:57;;;;;;;5.90;4.00;;;;;;;14.97;56.73;96636.56;5021428;28;20033;-65
2023/05/30 01:55:25;;;;;;;8.30;4.13;;;;;;;15.08;56.11;96632.59;5016607;28;20968;-65
2023/05/30 01:57:52;;;;;;;12.18;3.55;;;;;;;15.02;56.27;96627.91;5021307;28;20045;-63
2023/05/30 02:00:18;;;;;;;6.18;3.75;;;;;;;14.92;56.94;96626.72;5015945;28;20057;-64
2023/05/30 02:02:44;;;;;;;6.80;3.78;;;;;;;14.92;57.01;96632.25;5022140;28;20046;-65
2023/05/30 02:05:10;;;;;;;11.00;3.80;;;;;;;14.92;57.36;96629.47;5016265;28;20038;-65
2023/05/30 02:07:36;;;;;;;6.95;4.05;;;;;;;14.91;57.15;96633.44;5020776;28;20046;-65
2023/05/30 02:10:02;;;;;;;7.85;4.13;;;;;;;14.84;57.44;96630.69;5019192;28;20037;-66
2023/05/30 02:12:27;;;;;;;5.82;3.60;;;;;;;14.82;57.82;96636.59;5017223;28;20034;-66
2023/05/30 02:14:54;;;;;;;10.18;3.83;;;;;;;14.75;57.96;96633.84;5020999;28;20060;-64
2023/05/30 02:17:23;;;;;;;9.63;4.10;;;;;;;14.77;58.03;96633.47;5016224;28;20042;-65
2023/05/30 02:19:50;;;;;;;6.95;3.78;;;;;;;14.73;58.54;96633.47;5022318;28;20096;-64
2023/05/30 02:22:16;;;;;;;6.30;3.58;;;;;;;14.61;59.16;96633.88;5017404;28;20513;-65
2023/05/30 02:24:41;;;;;;;8.38;4.15;;;;;;;14.61;59.39;96629.13;5024450;28;20048;-63
2023/05/30 02:27:07;;;;;;;9.18;4.20;;;;;;;14.64;59.02;96631.09;5019698;28;20124;-66
2023/05/30 02:29:33;;;;;;;12.25;3.63;;;;;;;14.61;59.17;96637.41;5024413;28;20092;-66
2023/05/30 02:31:59;;;;;;;9.07;3.75;;;;;;;14.59;59.63;96644.50;5024392;28;20053;-66
2023/05/30 02:34:24;;;;;;;13.48;4.50;;;;;;;14.49;60.12;96635.78;5020700;28;20088;-66
2023/05/30 02:36:50;;;;;;;8.15;3.88;;;;;;;14.45;60.63;96634.22;5020775;28;20042;-66
2023/05/30 02:39:15;;;;;;;7.95;3.45;;;;;;;14.35;62.00;96646.84;5019878;28;20046;-68
2023/05/30 02:41:41;;;;;;;6.93;3.80;;;;;;;14.33;62.05;96660.19;5024891;28;20072;-65
2023/05/30 02:44:06;;;;;;;5.85;3.35;;;;;;;14.31;62.79;96657.84;5019499;28;20052;-65
2023/05/30 02:46:33;;;;;;;13.00;4.15;;;;;;;14.30;62.99;96652.72;5024910;28;20048;-66
2023/05/30 02:48:59;;;;;;;10.57;4.05;;;;;;;14.24;63.35;96651.53;5022788;28;20410;-67
2023/05/30 02:51:25;;;;;;;7.43;3.90;;;;;;;14.19;64.33;96646.41;5018506;28;20045;-66
2023/05/30 02:53:51;;;;;;;6.00;4.10;;;;;;;14.09;65.08;96643.25;5030546;28;20070;-67
2023/05/30 02:56:16;;;;;;;10.60;4.10;;;;;;;14.08;65.17;96640.88;5024979;28;20125;-65
2023/05/30 02:58:41;;;;;;;9.02;4.32;;;;;;;14.09;65.55;96647.97;5024195;28;20487;-67
2023/05/30 03:01:07;;;;;;;12.30;4.85;;;;;;;14.08;65.68;96652.69;5018646;28;20037;-66
2023/05/30 03:03:34;;;;;;;6.07;3.58;;;;;;;13.98;66.94;96647.16;5024957;28;20045;-68
2023/05/30 03:06:01;;;;;;;10.07;3.80;;;;;;;14.14;65.22;96645.59;5024017;28;20136;-67
2023/05/30 03:08:28;;;;;;;7.85;4.07;;;;;;;13.99;66.60;96648.72;5019376;28;20521;-67
2023/05/30 03:10:54;;;;;;;8.55;3.50;;;;;;;14.01;66.60;96649.13;5021573;28;20053;-66
2023/05/30 03:13:20;;;;;;;6.38;3.72;;;;;;;13.97;66.55;96651.88;5019232;28;20046;-67
2023/05/30 03:15:46;;;;;;;8.70;3.80;;;;;;;13.93;66.50;96662.09;5024172;28;20122;-66
2023/05/30 03:18:11;;;;;;;10.38;4.00;;;;;;;13.99;66.12;96662.50;5019018;28;20459;-66
2023/05/30 03:20:37;;;;;;;7.57;4.53;;;;;;;13.92;66.41;96660.53;5023480;28;20052;-66
2023/05/30 03:23:02;;;;;;;9.73;3.67;;;;;;;13.83;67.19;96655.38;5022018;28;20044;-66
2023/05/30 03:25:28;;;;;;;7.30;3.70;;;;;;;13.86;66.85;96653.81;5022045;28;20041;-65
2023/05/30 03:27:54;;;;;;;6.57;3.92;;;;;;;13.78;68.02;96661.28;5022166;28;20096;-65
2023/05/30 03:30:22;;;;;;;7.35;3.83;;;;;;;13.74;68.20;96652.22;5020354;28;20103;-65
2023/05/30 03:32:52;;;;;;;7.03;4.05;;;;;;;13.67;68.45;96644.72;5022602;28;20045;-65
2023/05/30 03:35:17;;;;;;;9.00;3.83;;;;;;;13.68;68.99;96668.28;5019310;28;20037;-65
2023/05/30 03:37:43;;;;;;;8.95;3.88;;;;;;;13.66;68.94;96661.63;5024205;28;20056;-65
2023/05/30 03:40:10;;;;;;;12.98;4.68;;;;;;;13.56;69.79;96674.16;5018230;28;20111;-65
2023/05/30 03:42:35;;;;;;;12.68;4.30;;;;;;;13.50;70.41;96672.94;5022654;28;20037;-66
2023/05/30 03:45:01;;;;;;;7.47;3.85;;;;;;;13.47;71.17;96676.47;5023108;28;20034;-66
2023/05/30 03:47:26;;;;;;;6.93;4.22;;;;;;;13.47;71.11;96674.53;5019071;28;20041;-67
2023/05/30 03:49:52;;;;;;;6.97;3.92;;;;;;;13.44;71.42;96678.03;5023884;28;20052;-67
2023/05/30 03:52:17;;;;;;;6.90;3.75;;;;;;;13.38;72.08;96680.38;5023667;28;20548;-67
2023/05/30 03:54:44;;;;;;;8.55;4.20;;;;;;;13.36;72.58;96681.91;5030842;28;20568;-67
2023/05/30 03:57:09;;;;;;;8.80;3.90;;;;;;;13.33;73.17;96685.47;5021945;28;20049;-67
2023/05/30 03:59:35;;;;;;;8.30;4.55;;;;;;;13.28;73.73;96688.53;5028257;28;20471;-68
2023/05/30 04:02:00;;;;;;;10.55;4.00;;;;;;;13.26;73.40;96675.16;5030018;28;20073;-67
2023/05/30 04:04:26;;;;;;;8.57;4.10;;;;;;;13.29;73.80;96676.34;5019087;28;20053;-66
2023/05/30 04:06:52;;;;;;;15.40;4.80;;;;;;;13.23;74.09;96684.19;5021903;28;20511;-66
2023/05/30 04:09:18;;;;;;;7.40;4.28;;;;;;;13.18;74.61;96671.59;5018028;28;20048;-66
2023/05/30 04:11:43;;;;;;;7.57;3.95;;;;;;;13.17;74.78;96678.25;5023090;28;20727;-66
2023/05/30 04:14:09;;;;;;;7.38;3.70;;;;;;;13.16;74.83;96686.88;5018321;28;20394;-66
2023/05/30 04:16:35;;;;;;;10.18;3.88;;;;;;;13.13;75.19;96691.19;5022885;28;20084;-66
2023/05/30 04:19:00;;;;;;;12.40;4.38;;;;;;;13.13;75.85;96696.69;5023849;28;20038;-65
2023/05/30 04:21:26;;;;;;;9.68;4.88;;;;;;;13.09;75.45;96693.16;5018317;28;20132;-66
2023/05/30 04:23:52;;;;;;;8.88;4.28;;;;;;;13.13;75.31;96696.69;5023576;28;20038;-66
2023/05/30 04:26:17;;;;;;;8.63;3.97;;;;;;;13.14;75.68;96697.47;5018815;28;20103;-66
2023/05/30 04:28:43;;;;;;;9.07;4.18;;;;;;;13.13;75.97;96693.94;5022561;28;20048;-64
2023/05/30 04:31:10;;;;;;;12.15;4.10;;;;;;;13.19;75.10;96700.66;5016645;28;20034;-66
2023/05/30 04:33:35;;;;;;;7.43;4.15;;;;;;;13.14;75.69;96714.78;5024112;28;20073;-66
2023/05/30 04:36:04;;;;;;;9.18;4.00;;;;;;;13.15;75.81;96716.34;5024762;28;20060;-66
2023/05/30 04:38:32;;;;;;;9.00;4.15;;;;;;;13.27;75.43;96728.19;5022303;28;20430;-66
2023/05/30 04:41:00;;;;;;;11.57;4.22;;;;;;;13.23;75.86;96719.94;5022568;28;20057;-66
2023/05/30 04:43:26;;;;;;;7.03;4.10;;;;;;;13.25;75.28;96712.09;5015985;28;20045;-66
2023/05/30 04:45:51;;;;;;;10.05;3.92;;;;;;;13.29;75.31;96714.84;5021855;28;20453;-66
2023/05/30 04:48:17;;;;;;;9.98;4.28;;;;;;;13.30;75.33;96719.97;5017996;28;20045;-66
2023/05/30 04:50:46;;;;;;;8.88;4.72;;;;;;;13.38;75.36;96707.88;5022389;28;20486;-66
2023/05/30 04:53:13;;;;;;;8.55;4.75;;;;;;;13.47;75.81;96718.53;5015586;28;20053;-67
2023/05/30 04:55:39;;;;;;;10.95;4.20;;;;;;;13.53;74.99;96718.97;5022778;28;20041;-66
2023/05/30 04:58:05;;;;;;;7.20;3.90;;;;;;;13.68;74.29;96717.84;5014390;28;20052;-67
2023/05/30 05:00:30;;;;;;;9.18;4.00;;;;;;;13.67;73.63;96716.28;5021708;28;20041;-66
2023/05/30 05:02:56;;;;;;;7.10;3.65;;;;;;;13.81;73.69;96720.25;5022677;28;20041;-70
2023/05/30 05:05:21;;;;;;;7.38;3.83;;;;;;;14.04;73.12;96730.97;5017339;28;20214;-64
2023/05/30 05:07:46;;;;;;;9.00;3.92;;;;;;;14.01;72.54;96731.72;5021829;28;20067;-64
2023/05/30 05:10:12;;;;;;;7.63;3.88;;;;;;;14.04;72.11;96741.97;5016973;28;20133;-64
2023/05/30 05:12:37;;;;;;;8.93;4.00;;;;;;;14.14;70.40;96735.72;5021124;28;20182;-64
2023/05/30 05:15:03;;;;;;;8.55;3.78;;;;;;;14.36;69.23;96739.31;5018739;28;20069;-65
2023/05/30 05:17:29;;;;;;;8.18;3.78;;;;;;;14.33;69.70;96743.66;5020395;28;20068;-65
2023/05/30 05:19:54;;;;;;;9.13;3.95;;;;;;;14.44;68.88;96745.63;5021868;28;20391;-65
2023/05/30 05:22:20;;;;;;;11.48;4.28;;;;;;;14.99;66.72;96739.78;5016012;28;20041;-65
2023/05/30 05:24:45;;;;;;;9.68;3.83;;;;;;;15.25;66.90;96740.53;5021522;28;20053;-65
2023/05/30 05:27:11;;;;;;;11.65;4.40;;;;;;;14.84;66.55;96744.53;5016932;28;20034;-63
2023/05/30 05:29:36;;;;;;;16.20;4.40;;;;;;;15.39;64.90;96748.03;5021425;28;20037;-65
2023/05/30 05:32:02;;;;;;;9.93;4.35;;;;;;;16.12;61.63;96743.88;5020876;28;20187;-66
2023/05/30 05:34:27;;;;;;;7.18;3.95;;;;;;;15.19;64.40;96753.94;5018774;28;20430;-64
2023/05/30 05:36:53;;;;;;;8.65;3.70;;;;;;;16.62;60.01;96749.13;5021401;28;20069;-64
2023/05/30 05:39:18;;;;;;;6.65;3.47;;;;;;;16.92;58.49;96756.03;5015964;28;20406;-63
2023/05/30 05:41:43;;;;;;;8.30;3.47;;;;;;;16.35;58.85;96759.91;5020080;28;20049;-64
2023/05/30 05:44:09;;;;;;;5.30;3.15;;;;;;;17.80;54.69;96752.03;5017489;28;20073;-65
2023/05/30 05:46:34;;;;;;;8.82;3.33;;;;;;;18.52;52.27;96755.50;5021970;28;20056;-66
2023/05/30 05:49:00;;;;;;;7.75;4.03;;;;;;;18.36;51.50;96754.56;5021842;28;20133;-66
2023/05/30 05:51:25;;;;;;;6.03;3.17;;;;;;;18.76;51.45;96752.75;5015931;28;20056;-66
2023/05/30 05:53:50;;;;;;;6.20;3.35;;;;;;;19.67;48.72;96761.19;5020991;28;20038;-66
2023/05/30 05:56:16;;;;;;;8.82;3.45;;;;;;;19.53;48.15;96772.56;5018557;28;20037;-66
2023/05/30 05:58:42;;;;;;;10.35;4.20;;;;;;;19.32;50.54;96766.19;5024591;28;20041;-66
2023/05/30 06:01:07;;;;;;;9.60;3.70;;;;;;;19.10;50.08;96769.34;5019813;28;20045;-66
2023/05/30 06:03:32;;;;;;;13.02;3.67;;;;;;;17.98;51.37;96774.81;5025328;28;20077;-66
2023/05/30 06:05:58;;;;;;;12.23;4.10;;;;;;;18.61;52.00;96771.63;5025446;28;20431;-65
2023/05/30 06:08:23;;;;;;;12.15;4.20;;;;;;;19.95;47.96;96779.38;5019655;28;20917;-66
2023/05/30 06:10:48;;;;;;;9.63;4.13;;;;;;;19.65;48.39;96781.06;5025519;28;20041;-66
2023/05/30 06:13:15;;;;;;;8.90;3.92;;;;;;;19.34;48.31;96774.88;5022881;28;20041;-66
2023/05/30 06:15:41;;;;;;;8.75;3.75;;;;;;;20.08;46.69;96779.50;5030602;28;20053;-63
2023/05/30 06:18:06;;;;;;;9.77;3.65;;;;;;;20.61;46.52;96791.50;5019435;28;20103;-65
2023/05/30 06:20:31;;;;;;;10.13;3.92;;;;;;;20.07;47.49;96785.50;5023777;28;20037;-67
2023/05/30 06:22:57;;;;;;;11.52;4.25;;;;;;;21.47;44.14;96788.75;5024041;28;20144;-65
2023/05/30 06:25:22;;;;;;;9.43;4.05;;;;;;;20.78;45.05;96805.50;5020284;28;20046;-65
2023/05/30 06:27:48;;;;;;;8.90;4.50;;;;;;;18.75;49.24;96795.59;5024040;28;20041;-65
2023/05/30 06:30:13;;;;;;;8.18;3.78;;;;;;;19.48;49.25;96799.63;5019303;28;20103;-65
2023/05/30 06:32:38;;;;;;;7.72;3.80;;;;;;;20.00;48.11;96803.09;5024912;28;20510;-64
2023/05/30 06:35:04;;;;;;;12.05;3.97;;;;;;;21.22;44.71;96803.25;5019796;28;20394;-66
2023/05/30 06:37:30;;;;;;;7.72;3.67;;;;;;;18.68;49.25;96810.34;5023521;28;20049;-65
2023/05/30 06:39:56;;;;;;;8.50;3.80;;;;;;;19.10;50.02;96810.16;5023762;28;20473;-64
2023/05/30 06:42:21;;;;;;;7.32;3.85;;;;;;;19.17;49.64;96810.06;5018800;28;20402;-66
2023/05/30 06:44:46;;;;;;;8.93;3.92;;;;;;;19.19;49.71;96813.19;5024373;28;20132;-65
2023/05/30 06:47:12;;;;;;;9.32;3.70;;;;;;;19.58;48.47;96808.22;5019806;28;20556;-66
2023/05/30 06:49:37;;;;;;;9.90;3.60;;;;;;;21.34;44.20;96808.13;5023681;28;20045;-65
2023/05/30 06:52:03;;;;;;;9.02;3.90;;;;;;;22.84;41.04;96802.47;5021782;28;20136;-66
2023/05/30 06:54:28;;;;;;;9.82;3.95;;;;;;;24.51;38.08;96816.06;5022772;28;20448;-65
2023/05/30 06:56:53;;;;;;;9.10;3.80;;;;;;;24.77;37.53;96824.31;5023612;28;20041;-65
2023/05/30 06:59:19;;;;;;;9.07;3.88;;;;;;;23.08;38.89;96816.94;5018118;28;20048;-65
2023/05/30 07:01:44;;;;;;;12.38;3.65;;;;;;;23.17;40.32;96818.25;5024285;28;20390;-65
2023/05/30 07:04:10;;;;;;;8.35;3.42;;;;;;;23.61;39.09;96816.41;5018624;28;20037;-66
2023/05/30 07:06:35;;;;;;;8.82;3.97;;;;;;;19.14;47.38;96819.25;5023247;28;20042;-65
2023/05/30 07:09:01;;;;;;;9.63;3.58;;;;;;;19.08;49.62;96820.91;5024050;28;20115;-65
2023/05/30 07:11:26;;;;;;;7.20;4.10;;;;;;;20.21;45.52;96811.00;5018566;28;20037;-65
2023/05/30 07:13:52;;;;;;;11.63;8.35;;;;;;;21.57;43.86;96815.56;5022949;28;20053;-65
2023/05/30 07:16:17;;;;;;;9.80;3.92;;;;;;;23.15;41.23;96820.72;5018311;28;20041;-66
2023/05/30 07:18:42;;;;;;;6.28;3.20;;;;;;;24.03;40.20;96821.00;5023253;28;20045;-68
2023/05/30 07:21:08;;;;;;;6.10;3.35;;;;;;;23.47;39.17;96823.25;5018500;28;20056;-66
2023/05/30 07:23:35;;;;;;;8.20;3.70;;;;;;;21.38;43.95;96825.53;5038595;28;20518;-66
2023/05/30 07:26:00;;;;;;;7.05;3.75;;;;;;;19.47;48.50;96833.38;5023614;28;20076;-65
2023/05/30 07:28:26;;;;;;;11.23;4.00;;;;;;;20.87;45.79;96827.94;5019188;28;20077;-66
2023/05/30 07:30:51;;;;;;;8.13;3.75;;;;;;;21.86;42.30;96819.59;5023427;28;20068;-65
2023/05/30 07:33:16;;;;;;;7.85;3.92;;;;;;;20.81;44.81;96816.53;5013743;28;20041;-66
2023/05/30 07:35:42;;;;;;;10.63;4.38;;;;;;;20.90;46.10;96820.72;5022902;28;20461;-65
2023/05/30 07:38:07;;;;;;;8.25;3.92;;;;;;;19.91;46.58;96817.53;5018078;28;20052;-65
2023/05/30 07:40:33;;;;;;;11.93;3.80;;;;;;;20.76;45.49;96822.63;5022866;28;20049;-65
2023/05/30 07:42:58;;;;;;;6.43;3.88;;;;;;;19.97;47.11;96817.84;5023232;28;20513;-65
2023/05/30 07:45:23;;;;;;;7.53;3.78;;;;;;;20.18;47.01;96816.63;5019336;28;20517;-66
2023/05/30 07:47:49;;;;;;;9.73;3.80;;;;;;;19.57;48.83;96815.75;5023273;28;20045;-66
2023/05/30 07:50:14;;;;;;;10.45;3.70;;;;;;;21.63;43.97;96809.47;5018431;28;20390;-65
2023/05/30 07:52:40;;;;;;;5.75;3.83;;;;;;;21.04;45.86;96809.25;5033721;28;20041;-66
2023/05/30 07:55:06;;;;;;;9.15;4.15;;;;;;;24.09;39.89;96805.19;5018564;28;20199;-66
2023/05/30 07:57:31;;;;;;;7.88;3.80;;;;;;;23.16;40.00;96803.50;5022478;28;20142;-66
2023/05/30 07:59:57;;;;;;;8.30;4.30;;;;;;;21.39;43.65;96807.63;5022440;28;20076;-66
2023/05/30 08:02:25;;;;;;;9.27;4.13;;;;;;;22.85;42.72;96811.63;5017306;28;20723;-66
2023/05/30 08:04:54;;;;;;;9.18;3.60;;;;;;;25.30;37.86;96812.25;5022864;28;20041;-66
2023/05/30 08:07:19;;;;;;;9.43;3.67;;;;;;;21.73;42.51;96809.19;5017802;28;20374;-66
2023/05/30 08:09:45;;;;;;;8.60;4.50;;;;;;;20.35;45.69;96809.94;5022611;28;20314;-66
2023/05/30 08:12:18;;;;;;;10.73;4.22;;;;;;;19.74;48.58;96808.34;5017487;28;20485;-66
2023/05/30 08:14:44;;;;;;;7.75;3.80;;;;;;;20.18;48.46;96800.72;5022495;28;20456;-65
2023/05/30 08:17:11;;;;;;;9.65;4.00;;;;;;;19.94;47.65;96807.59;5016609;28;20033;-65
2023/05/30 08:19:37;;;;;;;10.25;4.07;;;;;;;19.99;47.33;96801.53;5021939;28;20071;-65
2023/05/30 08:22:03;;;;;;;7.10;3.85;;;;;;;21.02;46.72;96794.22;5020198;28;20406;-66
2023/05/30 08:24:29;;;;;;;7.93;3.85;;;;;;;20.73;47.60;96798.44;5020852;28;20041;-65
2023/05/30 08:26:54;;;;;;;12.73;4.30;;;;;;;20.44;48.36;96796.22;5022836;28;20041;-65
2023/05/30 08:29:20;;;;;;;9.18;4.22;;;;;;;20.12;48.79;96783.00;5018152;28;20132;-65
2023/05/30 08:31:45;;;;;;;10.57;4.30;;;;;;;20.69;49.68;96792.16;5022046;28;20041;-65
2023/05/30 08:34:11;;;;;;;6.90;3.70;;;;;;;21.18;47.84;96788.66;5017403;28;20076;-66
2023/05/30 08:36:36;;;;;;;9.65;3.75;;;;;;;21.76;45.37;96785.22;5023424;28;20053;-65
2023/05/30 08:39:02;;;;;;;12.45;4.10;;;;;;;20.74;47.72;96797.22;5023779;28;20045;-65
2023/05/30 08:41:27;;;;;;;7.35;4.07;;;;;;;21.15;47.30;96779.16;5017255;28;20045;-65
2023/05/30 08:43:53;;;;;;;11.75;4.43;;;;;;;20.94;48.29;96774.88;5021496;28;20053;-64
2023/05/30 08:46:19;;;;;;;10.70;4.38;;;;;;;21.25;47.22;96787.66;5017339;28;20049;-65
2023/05/30 08:48:45;;;;;;;10.13;4.05;;;;;;;21.69;47.38;96783.38;5021670;28;20116;-66
2023/05/30 08:51:13;;;;;;;9.77;3.95;;;;;;;21.01;46.59;96779.47;5017161;28;20040;-66
2023/05/30 08:53:47;;;;;;;13.23;3.92;;;;;;;21.60;46.36;96785.25;5021967;28;20041;-65
2023/05/30 08:56:23;;;;;;;9.95;4.10;;;;;;;21.93;46.34;96783.16;5016192;28;20053;-65
2023/05/30 08:58:50;;;;;;;10.45;4.20;;;;;;;22.18;46.14;96788.03;5021558;28;20045;-65
2023/05/30 09:01:16;;;;;;;9.20;4.15;;;;;;;21.77;45.58;96786.78;5016128;28;20099;-66
2023/05/30 09:03:44;;;;;;;9.07;3.88;;;;;;;22.38;43.71;96787.88;5021006;28;20041;-65
2023/05/30 09:06:11;;;;;;;12.50;4.25;;;;;;;21.83;47.16;96790.59;5017511;28;20048;-65
2023/05/30 09:08:37;;;;;;;7.82;4.20;;;;;;;21.70;48.11;96789.75;5036776;28;20096;-65
2023/05/30 09:11:04;;;;;;;9.68;4.10;;;;;;;21.82;47.03;96788.25;5017470;28;20045;-65
2023/05/30 09:13:30;;;;;;;13.35;4.97;;;;;;;21.48;47.27;96783.94;5020411;28;20042;-67
2023/05/30 09:15:55;;;;;;;7.80;4.47;;;;;;;22.39;45.51;96788.69;5020346;28;20041;-65
2023/05/30 09:18:21;;;;;;;6.40;4.10;;;;;;;21.69;46.14;96786.19;5016323;28;20516;-65
2023/05/30 09:20:46;;;;;;;10.15;4.28;;;;;;;21.54;47.01;96773.84;5019229;28;20041;-65
2023/05/30 09:23:12;;;;;;;7.95;4.03;;;;;;;21.77;47.22;96784.00;5016196;28;20049;-66
2023/05/30 09:25:44;;;;;;;10.45;4.18;;;;;;;21.22;46.86;96780.19;5020424;28;20068;-65
2023/05/30 09:28:11;;;;;;;9.75;4.47;;;;;;;21.03;47.65;96790.19;5016467;28;20379;-65
2023/05/30 09:30:57;;;;;;;7.82;4.38;;;;;;;21.55;45.95;96783.75;5033729;28;20072;-66
2023/05/30 09:33:23;;;;;;;9.95;4.00;;;;;;;21.79;46.89;96789.13;5015881;28;20068;-66
2023/05/30 09:35:57;;;;;;;12.07;4.63;;;;;;;21.98;46.68;96779.81;5020691;28;20041;-66
2023/05/30 09:38:24;;;;;;;7.53;4.07;;;;;;;21.77;46.46;96779.19;5016214;28;20503;-66
2023/05/30 09:40:56;;;;;;;6.63;4.00;;;;;;;21.97;45.84;96786.66;5020994;28;20068;-66
2023/05/30 09:43:31;;;;;;;11.63;4.30;;;;;;;21.90;46.19;96784.06;5015695;28;20481;-67
2023/05/30 09:45:59;;;;;;;7.68;4.32;;;;;;;21.93;46.73;96783.16;5020678;28;20061;-66
2023/05/30 09:48:24;;;;;;;10.48;4.57;;;;;;;22.75;45.39;96774.44;5016884;28;20427;-66
2023/05/30 09:50:51;;;;;;;10.35;3.95;;;;;;;22.56;45.06;96772.63;5020640;28;20418;-66
2023/05/30 09:53:17;;;;;;;12.95;4.53;;;;;;;22.59;44.47;96786.47;5015301;28;20084;-66
2023/05/30 09:55:42;;;;;;;7.82;4.32;;;;;;;21.81;45.94;96781.88;5020779;28;20077;-65
2023/05/30 09:58:17;;;;;;;9.38;4.03;;;;;;;22.80;45.22;96785.06;5015426;28;20045;-67
2023/05/30 10:00:52;;;;;;;9.73;4.70;;;;;;;23.45;44.05;96788.59;5022019;28;20426;-66
2023/05/30 10:03:20;;;;;;;10.90;5.18;;;;;;;23.25;44.52;96772.88;5015822;28;20033;-66
2023/05/30 10:05:45;;;;;;;12.38;4.40;;;;;;;22.65;45.76;96776.34;5021532;28;20056;-65
2023/05/30 10:08:11;;;;;;;13.15;5.00;;;;;;;22.56;44.25;96773.41;5015522;28;20382;-66
2023/05/30 10:10:41;;;;;;;8.38;4.75;;;;;;;22.25;44.47;96782.25;5021135;28;20044;-66
2023/05/30 10:13:07;;;;;;;13.82;4.78;;;;;;;21.99;46.10;96773.03;5014475;28;20072;-66
2023/05/30 10:15:32;;;;;;;9.77;4.45;;;;;;;22.78;44.91;96772.75;5020906;28;20049;-66
2023/05/30 10:18:08;;;;;;;9.05;4.55;;;;;;;24.06;42.63;96772.53;5020212;28;20042;-66
2023/05/30 10:20:38;;;;;;;9.02;4.70;;;;;;;23.03;43.86;96767.19;5020085;28;20731;-66
2023/05/30 10:23:07;;;;;;;11.15;4.72;;;;;;;22.81;45.67;96769.84;5017831;28;20045;-67
2023/05/30 10:25:35;;;;;;;13.68;4.85;;;;;;;23.48;43.79;96762.56;5019928;28;20040;-64
2023/05/30 10:28:02;;;;;;;8.73;4.35;;;;;;;24.05;42.94;96759.78;5021543;28;20034;-66
2023/05/30 10:30:29;;;;;;;11.07;4.25;;;;;;;24.42;41.52;96760.03;5018188;28;20045;-66
2023/05/30 10:33:07;;;;;;;9.45;4.07;;;;;;;23.36;42.16;96763.38;5020655;28;20041;-66
2023/05/30 10:35:33;;;;;;;10.10;4.30;;;;;;;23.49;43.43;96761.31;5019574;28;20060;-66
2023/05/30 10:37:59;;;;;;;9.60;4.53;;;;;;;22.90;43.02;96760.81;5020386;28;20487;-64
2023/05/30 10:40:49;;;;;;;9.80;4.65;;;;;;;22.78;44.64;96756.00;5015027;28;20053;-66
2023/05/30 10:43:24;;;;;;;12.70;4.80;;;;;;;22.95;43.78;96757.47;5018391;28;20041;-67
2023/05/30 10:46:10;;;;;;;9.80;4.45;;;;;;;22.35;45.49;96751.75;5023719;28;20045;-63
2023/05/30 10:48:56;;;;;;;10.38;4.57;;;;;;;23.62;43.14;96756.47;5023849;28;20140;-66
2023/05/30 10:51:21;;;;;;;11.65;4.30;;;;;;;24.39;42.27;96753.31;5018758;28;20874;-64
2023/05/30 10:53:47;;;;;;;9.63;4.63;;;;;;;24.90;41.55;96740.19;5024178;28;20045;-64
2023/05/30 10:56:38;;;;;;;9.07;4.60;;;;;;;23.64;41.81;96737.22;5016927;28;20117;-65
2023/05/30 10:59:11;;;;;;;9.10;4.82;;;;;;;23.26;42.98;96740.13;5020389;28;20091;-69
2023/05/30 11:01:38;;;;;;;8.45;4.20;;;;;;;24.03;41.03;96746.25;5024367;28;20045;-65
2023/05/30 11:04:11;;;;;;;9.15;4.30;;;;;;;24.39;40.80;96733.72;5018916;28;20041;-70
2023/05/30 11:06:46;;;;;;;8.90;4.55;;;;;;;23.61;41.62;96734.56;5024159;28;20046;-65
2023/05/30 11:09:16;;;;;;;10.10;4.55;;;;;;;23.57;42.62;96731.88;5020601;28;20114;-64
2023/05/30 11:12:02;;;;;;;11.13;4.18;;;;;;;23.45;42.37;96733.47;5024062;28;20052;-65
2023/05/30 11:14:33;;;;;;;7.57;4.68;;;;;;;23.59;43.65;96729.41;5025123;28;20057;-67
2023/05/30 11:17:05;;;;;;;8.07;4.30;;;;;;;23.71;42.93;96727.78;5034040;28;20034;-64
2023/05/30 11:19:45;;;;;;;8.32;4.20;;;;;;;23.64;41.19;96736.44;5023200;28;20484;-62
2023/05/30 11:22:15;;;;;;;8.13;4.25;;;;;;;23.05;43.60;96714.47;5016789;28;20049;-63
2023/05/30 11:24:41;;;;;;;10.55;4.53;;;;;;;23.14;42.88;96730.56;5023804;28;20502;-63
2023/05/30 11:27:08;;;;;;;9.98;4.72;;;;;;;23.72;41.19;96731.38;5018988;28;20132;-62
2023/05/30 11:29:36;;;;;;;13.75;4.57;;;;;;;23.43;41.96;96726.78;5023746;28;20038;-66
2023/05/30 11:32:05;;;;;;;11.75;4.47;;;;;;;23.20;42.81;96723.16;5039008;28;20072;-65